createdAt,value
2023-02-11T00:02:05.511Z,103018.56
2023-02-11T00:04:32.170Z,103028.13
2023-02-11T00:06:58.649Z,103019.69
2023-02-11T00:09:25.097Z,103019.84
2023-02-11T00:11:51.548Z,103013.22
2023-02-11T00:14:17.996Z,103022.28
2023-02-11T00:16:44.539Z,103015.00
2023-02-11T00:19:11.037Z,103022.25
2023-02-11T00:21:37.514Z,103025.66
2023-02-11T00:24:04.228Z,103017.75
2023-02-11T00:26:33.940Z,103015.66
2023-02-11T00:29:01.466Z,103024.56
2023-02-11T00:31:28.487Z,103007.84
2023-02-11T00:33:55.141Z,103016.75
2023-02-11T00:36:24.580Z,103013.69
2023-02-11T00:38:52.656Z,103006.75
2023-02-11T00:41:19.727Z,103006.56
2023-02-11T00:43:46.384Z,103000.88
2023-02-11T00:46:13.884Z,102999.25
2023-02-11T00:48:41.634Z,103004.94
2023-02-11T00:51:08.454Z,102996.50
2023-02-11T00:53:36.041Z,102999.13
2023-02-11T00:56:02.854Z,103009.00
2023-02-11T00:58:29.391Z,103005.75
2023-02-11T01:00:56.299Z,102996.69
2023-02-11T01:03:23.570Z,102998.28
2023-02-11T01:05:50.687Z,102999.25
2023-02-11T01:08:17.339Z,103004.63
2023-02-11T01:10:44.021Z,102999.59
2023-02-11T01:13:10.919Z,103001.88
2023-02-11T01:15:37.516Z,103001.22
2023-02-11T01:18:05.864Z,103005.09
2023-02-11T01:20:32.354Z,103016.31
2023-02-11T01:22:58.830Z,103020.53
2023-02-11T01:25:25.285Z,103016.44
2023-02-11T01:27:51.812Z,103018.88
2023-02-11T01:30:18.357Z,103008.34
2023-02-11T01:32:44.793Z,103001.22
2023-02-11T01:35:11.306Z,102997.47
2023-02-11T01:37:37.800Z,102996.19
2023-02-11T01:40:07.103Z,103006.38
2023-02-11T01:42:33.821Z,103005.91
2023-02-11T01:45:01.822Z,103009.00
2023-02-11T01:47:28.276Z,102992.97
2023-02-11T01:50:01.577Z,102984.34
2023-02-11T01:52:47.890Z,102987.25
2023-02-11T01:55:33.051Z,102990.66
2023-02-11T01:58:04.941Z,102992.47
2023-02-11T02:00:36.662Z,102997.16
2023-02-11T02:03:09.733Z,102988.41
2023-02-11T02:05:36.132Z,102991.31
2023-02-11T02:08:17.297Z,102961.50
2023-02-11T02:10:47.147Z,102953.22
2023-02-11T02:13:14.257Z,102946.75
2023-02-11T02:15:52.291Z,102940.41
2023-02-11T02:18:56.092Z,102948.16
2023-02-11T02:21:22.536Z,102939.28
2023-02-11T02:24:00.999Z,102945.91
2023-02-11T02:26:45.642Z,102956.63
2023-02-11T02:29:49.722Z,102970.56
2023-02-11T02:32:32.987Z,102975.28
2023-02-11T02:35:38.173Z,102966.34
2023-02-11T02:38:20.793Z,102965.03
2023-02-11T02:40:53.738Z,102965.53
2023-02-11T02:43:22.751Z,102955.34
2023-02-11T02:45:49.570Z,102962.13
2023-02-11T02:48:28.134Z,102957.91
2023-02-11T02:51:15.283Z,102960.34
2023-02-11T02:54:18.090Z,102952.25
2023-02-11T02:57:15.661Z,102947.06
2023-02-11T03:00:10.195Z,102947.53
2023-02-11T03:02:51.123Z,102948.03
2023-02-11T03:05:30.742Z,102945.28
2023-02-11T03:08:05.413Z,102949.81
2023-02-11T03:10:36.169Z,102952.72
2023-02-11T03:13:04.427Z,102950.16
2023-02-11T03:15:34.788Z,102955.81
2023-02-11T03:18:03.548Z,102951.44
2023-02-11T03:20:36.422Z,102957.13
2023-02-11T03:23:14.337Z,102962.13
2023-02-11T03:26:00.177Z,102969.44
2023-02-11T03:28:35.615Z,102959.88
2023-02-11T03:31:11.326Z,102966.03
2023-02-11T03:33:49.256Z,102962.78
2023-02-11T03:36:22.823Z,102960.53
2023-02-11T03:38:53.976Z,102953.88
2023-02-11T03:41:23.257Z,102960.53
2023-02-11T03:43:54.393Z,102934.38
2023-02-11T03:46:28.796Z,102951.25
2023-02-11T03:49:04.132Z,102939.91
2023-02-11T03:51:33.044Z,102942.19
2023-02-11T03:54:05.412Z,102941.38
2023-02-11T03:56:36.308Z,102953.50
2023-02-11T03:59:02.990Z,102932.44
2023-02-11T04:01:32.361Z,102930.66
2023-02-11T04:03:58.898Z,102936.16
2023-02-11T04:06:25.338Z,102941.66
2023-02-11T04:08:51.819Z,102936.16
2023-02-11T04:11:18.548Z,102956.59
2023-02-11T04:13:45.072Z,102942.19
2023-02-11T04:16:11.579Z,102952.19
2023-02-11T04:18:38.098Z,102954.78
2023-02-11T04:21:04.706Z,102954.78
2023-02-11T04:23:31.156Z,102949.59
2023-02-11T04:25:57.638Z,102964.66
2023-02-11T04:28:24.269Z,102957.03
2023-02-11T04:30:51.286Z,102953.31
2023-02-11T04:33:17.957Z,102966.91
2023-02-11T04:35:45.000Z,102966.94
2023-02-11T04:38:11.495Z,102974.69
2023-02-11T04:40:38.109Z,102994.78
2023-02-11T04:43:04.858Z,102972.25
2023-02-11T04:45:31.314Z,102967.06
2023-02-11T04:47:57.937Z,102979.22
2023-02-11T04:50:24.432Z,102960.28
2023-02-11T04:52:50.878Z,102955.72
2023-02-11T04:55:17.491Z,102961.84
2023-02-11T04:57:43.946Z,102969.31
2023-02-11T05:00:11.000Z,102954.41
2023-02-11T05:02:37.512Z,102954.06
2023-02-11T05:05:04.404Z,102958.78
2023-02-11T05:07:31.336Z,102963.34
2023-02-11T05:09:57.841Z,102962.34
2023-02-11T05:12:24.381Z,102961.22
2023-02-11T05:14:50.842Z,102960.91
2023-02-11T05:17:17.311Z,102956.22
2023-02-11T05:19:43.772Z,102949.59
2023-02-11T05:22:10.248Z,102960.47
2023-02-11T05:24:36.705Z,102959.31
2023-02-11T05:27:03.324Z,102952.34
2023-02-11T05:29:29.837Z,102947.97
2023-02-11T05:31:56.377Z,102941.50
2023-02-11T05:34:22.874Z,102949.13
2023-02-11T05:36:49.675Z,102950.91
2023-02-11T05:39:16.127Z,102947.81
2023-02-11T05:41:42.681Z,102950.25
2023-02-11T05:44:09.528Z,102939.88
2023-02-11T05:46:36.152Z,102936.47
2023-02-11T05:49:03.171Z,102929.69
2023-02-11T05:51:29.629Z,102926.09
2023-02-11T05:53:56.084Z,102938.78
2023-02-11T05:56:22.535Z,102923.50
2023-02-11T05:58:48.979Z,102942.81
2023-02-11T06:01:15.453Z,102951.06
2023-02-11T06:03:42.084Z,102951.69
2023-02-11T06:06:12.777Z,102942.47
2023-02-11T06:08:39.817Z,102939.22
2023-02-11T06:11:06.394Z,102940.81
2023-02-11T06:13:32.992Z,102943.63
2023-02-11T06:16:00.887Z,102950.56
2023-02-11T06:18:27.569Z,102951.50
2023-02-11T06:20:54.038Z,102942.28
2023-02-11T06:23:20.859Z,102947.81
2023-02-11T06:25:47.420Z,102942.63
2023-02-11T06:28:13.922Z,102947.66
2023-02-11T06:30:40.579Z,102950.25
2023-02-11T06:33:07.091Z,102950.44
2023-02-11T06:35:35.253Z,102953.97
2023-02-11T06:38:01.993Z,102951.69
2023-02-11T06:40:28.478Z,102953.19
2023-02-11T06:42:54.930Z,102954.78
2023-02-11T06:45:21.506Z,102956.38
2023-02-11T06:47:47.954Z,102958.81
2023-02-11T06:50:15.088Z,102949.16
2023-02-11T06:52:41.549Z,102958.03
2023-02-11T06:55:08.340Z,102956.69
2023-02-11T06:57:34.881Z,102962.72
2023-02-11T07:00:01.408Z,102966.94
2023-02-11T07:02:28.118Z,102973.44
2023-02-11T07:04:54.621Z,102972.28
2023-02-11T07:07:21.085Z,102972.91
2023-02-11T07:09:47.547Z,102970.00
2023-02-11T07:12:14.012Z,102965.94
2023-02-11T07:14:40.744Z,102971.16
2023-02-11T07:17:07.231Z,102961.22
2023-02-11T07:19:33.674Z,102975.69
2023-02-11T07:22:00.278Z,102983.13
2023-02-11T07:24:26.807Z,102977.13
2023-02-11T07:26:53.774Z,102972.59
2023-02-11T07:29:20.233Z,102990.88
2023-02-11T07:31:46.797Z,102987.50
2023-02-11T07:34:13.304Z,102986.34
2023-02-11T07:36:39.927Z,102985.59
2023-02-11T07:39:06.419Z,102981.34
2023-02-11T07:41:36.673Z,102983.16
2023-02-11T07:44:04.527Z,102972.44
2023-02-11T07:46:31.200Z,102976.81
2023-02-11T07:48:57.886Z,102980.41
2023-02-11T07:51:27.835Z,102977.31
2023-02-11T07:53:55.806Z,102981.19
2023-02-11T07:56:22.540Z,102981.19
2023-02-11T07:58:49.918Z,102984.44
2023-02-11T08:01:26.035Z,102976.19
2023-02-11T08:03:53.364Z,102988.03
2023-02-11T08:06:21.536Z,102987.53
2023-02-11T08:08:48.563Z,102983.00
2023-02-11T08:11:20.766Z,102988.50
2023-02-11T08:13:48.060Z,103002.47
2023-02-11T08:16:35.576Z,102994.53
2023-02-11T08:19:05.424Z,103016.72
2023-02-11T08:21:32.181Z,103011.72
2023-02-11T08:23:59.147Z,103011.38
2023-02-11T08:26:28.758Z,103017.22
2023-02-11T08:28:57.094Z,103019.00
2023-02-11T08:31:27.462Z,103023.06
2023-02-11T08:33:54.885Z,103018.72
2023-02-11T08:36:24.075Z,103024.84
2023-02-11T08:38:51.060Z,103029.88
2023-02-11T08:41:18.210Z,103016.59
2023-02-11T08:43:45.554Z,103029.53
2023-02-11T08:46:15.701Z,103019.69
2023-02-11T08:48:43.137Z,103017.56
2023-02-11T08:51:13.171Z,103022.75
2023-02-11T08:53:39.814Z,103025.50
2023-02-11T08:56:06.529Z,103033.94
2023-02-11T08:58:33.487Z,103034.44
2023-02-11T09:01:00.251Z,103028.78
2023-02-11T09:03:26.728Z,103030.53
2023-02-11T09:05:53.420Z,103044.50
2023-02-11T09:08:20.976Z,103036.38
2023-02-11T09:10:47.566Z,103037.38
2023-02-11T09:13:14.062Z,103040.78
2023-02-11T09:15:40.581Z,103049.38
2023-02-11T09:18:07.525Z,103049.84
2023-02-11T09:20:34.214Z,103049.06
2023-02-11T09:23:00.779Z,103062.00
2023-02-11T09:25:27.281Z,103060.88
2023-02-11T09:27:54.022Z,103062.00
2023-02-11T09:30:20.867Z,103065.25
2023-02-11T09:32:47.535Z,103057.66
2023-02-11T09:35:14.053Z,103067.69
2023-02-11T09:37:40.572Z,103042.69
2023-02-11T09:40:07.290Z,103063.50
2023-02-11T09:42:45.660Z,103073.88
2023-02-11T09:45:27.617Z,103073.22
2023-02-11T09:48:16.036Z,103083.78
2023-02-11T09:50:50.436Z,103084.09
2023-02-11T09:53:25.189Z,103078.25
2023-02-11T09:55:55.822Z,103081.84
2023-02-11T09:58:39.721Z,103096.28
2023-02-11T10:01:45.162Z,103085.72
2023-02-11T10:04:24.362Z,103084.44
2023-02-11T10:06:53.597Z,103082.66
2023-02-11T10:09:20.063Z,103083.47
2023-02-11T10:12:01.798Z,103086.25
2023-02-11T10:14:49.811Z,103089.50
2023-02-11T10:17:54.184Z,103101.31
2023-02-11T10:20:50.047Z,103096.63
2023-02-11T10:23:19.693Z,103103.94
2023-02-11T10:25:56.310Z,103102.97
2023-02-11T10:28:24.980Z,103121.13
2023-02-11T10:31:05.611Z,103114.66
2023-02-11T10:33:54.059Z,103103.44
2023-02-11T10:36:24.080Z,103105.84
2023-02-11T10:38:50.558Z,103107.81
2023-02-11T10:41:22.603Z,103110.41
2023-02-11T10:43:49.726Z,103111.06
2023-02-11T10:46:32.040Z,103122.09
2023-02-11T10:48:58.597Z,103119.66
2023-02-11T10:51:29.157Z,103124.19
2023-02-11T10:54:04.765Z,103136.84
2023-02-11T10:56:34.530Z,103145.97
2023-02-11T10:59:40.403Z,103140.44
2023-02-11T11:02:44.444Z,103149.69
2023-02-11T11:05:20.368Z,103148.22
2023-02-11T11:08:19.669Z,103140.75
2023-02-11T11:11:03.825Z,103142.38
2023-02-11T11:13:36.230Z,103146.09
2023-02-11T11:16:17.227Z,103143.19
2023-02-11T11:18:46.045Z,103149.50
2023-02-11T11:21:26.013Z,103144.97
2023-02-11T11:24:00.721Z,103142.69
2023-02-11T11:26:39.453Z,103147.41
2023-02-11T11:29:30.406Z,103151.13
2023-02-11T11:32:01.330Z,103151.28
2023-02-11T11:34:32.354Z,103143.47
2023-02-11T11:37:09.536Z,103140.53
2023-02-11T11:39:36.392Z,103143.78
2023-02-11T11:47:26.227Z,103133.91
2023-02-11T11:50:23.606Z,103134.06
2023-02-11T11:53:05.766Z,103121.72
2023-02-11T11:55:44.648Z,103127.25
2023-02-11T11:58:21.042Z,103135.47
2023-02-11T12:00:59.280Z,103122.66
2023-02-11T12:03:44.988Z,103125.91
2023-02-11T12:06:17.457Z,103136.13
2023-02-11T12:09:05.819Z,103132.19
2023-02-11T12:12:06.364Z,103131.75
2023-02-11T12:18:15.500Z,103119.53
2023-02-11T12:21:14.616Z,103113.88
2023-02-11T12:23:49.799Z,103114.19
2023-02-11T12:26:23.669Z,103119.06
2023-02-11T12:29:52.491Z,103112.88
2023-02-11T12:32:21.815Z,103108.47
2023-02-11T12:34:59.609Z,103104.72
2023-02-11T12:37:45.535Z,103087.97
2023-02-11T12:40:22.853Z,103110.19
2023-02-11T12:43:18.413Z,103103.69
2023-02-11T12:45:44.829Z,103103.72
2023-02-11T12:48:23.199Z,103095.91
2023-02-11T12:51:07.299Z,103097.00
2023-02-11T12:53:45.466Z,103094.72
2023-02-11T12:56:23.656Z,103104.81
2023-02-11T12:58:54.236Z,103097.16
2023-02-11T13:01:31.991Z,103097.81
2023-02-11T13:04:17.533Z,103099.41
2023-02-11T13:06:57.696Z,103097.47
2023-02-11T13:09:30.607Z,103099.88
2023-02-11T13:12:22.698Z,103101.22
2023-02-11T13:14:52.622Z,103098.91
2023-02-11T13:17:30.470Z,103106.06
2023-02-11T13:20:38.547Z,103108.69
2023-02-11T13:26:29.871Z,103097.78
2023-02-11T13:29:13.191Z,103100.44
2023-02-11T13:31:39.951Z,103097.16
2023-02-11T13:34:24.401Z,103101.22
2023-02-11T13:36:57.711Z,103090.63
2023-02-11T13:39:24.661Z,103091.31
2023-02-11T13:42:01.747Z,103083.31
2023-02-11T13:44:28.794Z,103080.50
2023-02-11T13:47:05.403Z,103092.53
2023-02-11T13:49:35.598Z,103103.22
2023-02-11T13:52:07.411Z,103093.59
2023-02-11T13:54:37.425Z,103081.38
2023-02-11T13:57:21.801Z,103092.03
2023-02-11T13:59:53.134Z,103086.06
2023-02-11T14:02:50.834Z,103088.88
2023-02-11T14:05:50.823Z,103079.03
2023-02-11T14:08:43.480Z,103080.88
2023-02-11T14:11:26.473Z,103074.88
2023-02-11T14:13:52.899Z,103084.47
2023-02-11T14:16:36.943Z,103083.22
2023-02-11T14:19:06.231Z,103080.63
2023-02-11T14:21:39.419Z,103086.19
2023-02-11T14:24:07.112Z,103092.19
2023-02-11T14:26:56.187Z,103085.94
2023-02-11T14:29:25.791Z,103091.97
2023-02-11T14:32:03.931Z,103091.53
2023-02-11T14:34:38.007Z,103086.59
2023-02-11T14:37:14.739Z,103087.09
2023-02-11T14:39:52.591Z,103082.13
2023-02-11T14:42:22.529Z,103075.53
2023-02-11T14:44:51.449Z,103083.25
2023-02-11T14:47:31.415Z,103090.72
2023-02-11T14:49:57.989Z,103088.44
2023-02-11T14:52:34.311Z,103093.63
2023-02-11T14:55:40.764Z,103088.09
2023-02-11T14:58:16.165Z,103085.50
2023-02-11T15:00:56.515Z,103088.09
2023-02-11T15:03:31.781Z,103083.69
2023-02-11T15:06:00.128Z,103083.00
2023-02-11T15:08:27.576Z,103076.34
2023-02-11T15:10:55.794Z,103085.66
2023-02-11T15:13:27.308Z,103081.41
2023-02-11T15:16:18.449Z,103087.41
2023-02-11T15:18:49.432Z,103086.84
2023-02-11T15:21:32.220Z,103094.22
2023-02-11T15:24:02.112Z,103087.53
2023-02-11T15:26:29.716Z,103101.13
2023-02-11T15:28:56.347Z,103106.06
2023-02-11T15:31:26.049Z,103102.81
2023-02-11T15:33:53.794Z,103106.88
2023-02-11T15:36:28.278Z,103108.81
2023-02-11T15:39:29.072Z,103106.53
2023-02-11T15:41:55.645Z,103111.78
2023-02-11T15:44:30.559Z,103112.41
2023-02-11T15:46:57.479Z,103112.53
2023-02-11T15:49:25.805Z,103123.06
2023-02-11T15:51:55.166Z,103117.81
2023-02-11T15:54:26.766Z,103112.69
2023-02-11T15:56:58.920Z,103115.44
2023-02-11T15:59:38.075Z,103124.91
2023-02-11T16:02:25.039Z,103127.69
2023-02-11T16:04:54.901Z,103128.47
2023-02-11T16:07:45.558Z,103125.56
2023-02-11T16:10:55.609Z,103113.22
2023-02-11T16:13:23.902Z,103120.72
2023-02-11T16:16:05.802Z,103119.91
2023-02-11T16:19:03.340Z,103126.72
2023-02-11T16:21:35.921Z,103132.94
2023-02-11T16:24:03.873Z,103135.56
2023-02-11T16:26:32.815Z,103145.50
2023-02-11T16:29:15.095Z,103140.09
2023-02-11T16:31:47.495Z,103146.50
2023-02-11T16:34:19.911Z,103148.72
2023-02-11T16:36:47.526Z,103151.03
2023-02-11T16:39:14.808Z,103155.94
2023-02-11T16:41:41.341Z,103153.81
2023-02-11T16:44:07.947Z,103157.09
2023-02-11T16:46:36.527Z,103165.22
2023-02-11T16:49:20.389Z,103169.78
2023-02-11T16:51:50.169Z,103154.53
2023-02-11T16:54:17.545Z,103163.91
2023-02-11T16:56:44.605Z,103162.78
2023-02-11T16:59:11.639Z,103159.03
2023-02-11T17:01:40.223Z,103156.16
2023-02-11T17:04:07.479Z,103156.31
2023-02-11T17:06:34.941Z,103162.34
2023-02-11T17:09:01.571Z,103156.16
2023-02-11T17:11:28.050Z,103158.97
2023-02-11T17:13:54.593Z,103167.72
2023-02-11T17:16:24.848Z,103166.34
2023-02-11T17:18:51.390Z,103174.75
2023-02-11T17:21:18.677Z,103181.63
2023-02-11T17:23:46.166Z,103175.25
2023-02-11T17:26:12.733Z,103180.16
2023-02-11T17:28:39.245Z,103179.22
2023-02-11T17:31:09.445Z,103174.81
2023-02-11T17:33:37.809Z,103182.78
2023-02-11T17:36:09.573Z,103184.75
2023-02-11T17:38:37.518Z,103176.50
2023-02-11T17:41:05.014Z,103181.00
2023-02-11T17:43:31.888Z,103180.56
2023-02-11T17:45:58.392Z,103192.41
2023-02-11T17:48:24.977Z,103200.56
2023-02-11T17:50:51.408Z,103206.09
2023-02-11T17:53:17.918Z,103208.66
2023-02-11T17:55:44.389Z,103205.44
2023-02-11T17:58:10.881Z,103197.47
2023-02-11T18:00:37.418Z,103214.84
2023-02-11T18:03:04.426Z,103221.75
2023-02-11T18:05:39.995Z,103221.53
2023-02-11T18:08:07.339Z,103219.94
2023-02-11T18:10:34.054Z,103229.50
2023-02-11T18:13:01.195Z,103224.22
2023-02-11T18:15:27.744Z,103230.81
2023-02-11T18:17:55.771Z,103216.88
2023-02-11T18:20:22.398Z,103232.97
2023-02-11T18:22:48.943Z,103238.66
2023-02-11T18:25:16.115Z,103233.47
2023-02-11T18:27:42.662Z,103245.47
2023-02-11T18:30:15.013Z,103234.94
2023-02-11T18:32:41.589Z,103232.31
2023-02-11T18:35:14.869Z,103236.69
2023-02-11T18:37:42.515Z,103240.59
2023-02-11T18:40:10.799Z,103242.91
2023-02-11T18:42:37.697Z,103251.00
2023-02-11T18:45:09.800Z,103254.44
2023-02-11T18:47:40.373Z,103250.72
2023-02-11T18:50:08.894Z,103257.69
2023-02-11T18:52:38.085Z,103263.88
2023-02-11T18:55:05.816Z,103256.91
2023-02-11T18:57:32.497Z,103256.91
2023-02-11T18:59:59.099Z,103263.88
2023-02-11T19:02:25.603Z,103257.84
2023-02-11T19:04:52.109Z,103256.03
2023-02-11T19:07:18.641Z,103267.59
2023-02-11T19:09:45.110Z,103269.88
2023-02-11T19:12:11.981Z,103271.50
2023-02-11T19:14:38.751Z,103276.22
2023-02-11T19:17:07.773Z,103282.06
2023-02-11T19:19:36.005Z,103271.22
2023-02-11T19:22:08.478Z,103276.09
2023-02-11T19:24:37.198Z,103265.84
2023-02-11T19:27:04.069Z,103280.13
2023-02-11T19:29:35.239Z,103288.75
2023-02-11T19:32:03.746Z,103292.34
2023-02-11T19:34:30.258Z,103295.28
2023-02-11T19:36:59.240Z,103298.38
2023-02-11T19:39:25.983Z,103306.00
2023-02-11T19:41:53.043Z,103299.97
2023-02-11T19:44:19.581Z,103306.00
2023-02-11T19:46:46.193Z,103300.31
2023-02-11T19:49:16.265Z,103303.72
2023-02-11T19:51:43.007Z,103300.97
2023-02-11T19:54:09.776Z,103303.06
2023-02-11T19:56:37.900Z,103313.66
2023-02-11T19:59:05.053Z,103310.06
2023-02-11T20:01:31.614Z,103317.56
2023-02-11T20:03:58.127Z,103315.28
2023-02-11T20:06:28.139Z,103315.44
2023-02-11T20:08:58.437Z,103319.00
2023-02-11T20:11:25.917Z,103318.88
2023-02-11T20:13:52.453Z,103313.34
2023-02-11T20:16:21.166Z,103315.78
2023-02-11T20:18:49.044Z,103316.25
2023-02-11T20:21:20.993Z,103319.34
2023-02-11T20:23:49.871Z,103322.63
2023-02-11T20:26:22.717Z,103314.31
2023-02-11T20:28:50.962Z,103330.56
2023-02-11T20:31:18.077Z,103331.72
2023-02-11T20:33:46.105Z,103335.94
2023-02-11T20:36:21.618Z,103334.63
2023-02-11T20:38:48.697Z,103336.25
2023-02-11T20:41:24.685Z,103336.13
2023-02-11T20:43:53.908Z,103340.03
2023-02-11T20:46:25.518Z,103341.31
2023-02-11T20:48:52.652Z,103342.09
2023-02-11T20:51:22.803Z,103345.25
2023-02-11T20:53:51.227Z,103356.13
2023-02-11T20:56:26.475Z,103360.69
2023-02-11T20:58:53.301Z,103363.13
2023-02-11T21:01:22.252Z,103358.06
2023-02-11T21:03:54.690Z,103369.63
2023-02-11T21:06:23.281Z,103368.31
2023-02-11T21:08:49.970Z,103360.84
2023-02-11T21:11:16.720Z,103354.34
2023-02-11T21:13:44.022Z,103360.19
2023-02-11T21:16:16.320Z,103358.06
2023-02-11T21:18:43.382Z,103356.13
2023-02-11T21:21:10.160Z,103354.19
2023-02-11T21:23:38.061Z,103368.00
2023-02-11T21:26:04.664Z,103365.25
2023-02-11T21:28:31.251Z,103367.69
2023-02-11T21:30:58.526Z,103364.09
2023-02-11T21:33:27.049Z,103365.56
2023-02-11T21:35:58.008Z,103369.63
2023-02-11T21:38:25.480Z,103368.47
2023-02-11T21:40:52.252Z,103366.69
2023-02-11T21:43:19.344Z,103370.28
2023-02-11T21:45:47.926Z,103375.31
2023-02-11T21:48:14.964Z,103369.44
2023-02-11T21:50:43.373Z,103370.94
2023-02-11T21:53:10.663Z,103361.47
2023-02-11T21:55:38.540Z,103364.41
2023-02-11T21:58:05.510Z,103366.88
2023-02-11T22:00:32.114Z,103370.59
2023-02-11T22:02:58.569Z,103370.28
2023-02-11T22:05:25.152Z,103373.38
2023-02-11T22:07:52.261Z,103378.38
2023-02-11T22:10:19.526Z,103373.38
2023-02-11T22:12:46.342Z,103372.72
2023-02-11T22:15:13.446Z,103377.09
2023-02-11T22:17:40.136Z,103380.38
2023-02-11T22:20:07.731Z,103375.31
2023-02-11T22:22:35.311Z,103376.44
2023-02-11T22:25:02.182Z,103382.94
2023-02-11T22:27:28.890Z,103380.03
2023-02-11T22:29:55.363Z,103386.03
2023-02-11T22:32:21.893Z,103381.31
2023-02-11T22:34:48.389Z,103385.56
2023-02-11T22:37:15.042Z,103387.69
2023-02-11T22:39:42.642Z,103386.84
2023-02-11T22:42:09.368Z,103387.69
2023-02-11T22:44:37.376Z,103389.94
2023-02-11T22:47:03.975Z,103386.69
2023-02-11T22:49:32.449Z,103401.81
2023-02-11T22:51:59.376Z,103404.72
2023-02-11T22:54:26.154Z,103401.97
2023-02-11T22:56:53.335Z,103406.84
2023-02-11T22:59:20.443Z,103401.19
2023-02-11T23:01:47.634Z,103404.25
2023-02-11T23:04:16.046Z,103416.13
2023-02-11T23:06:43.202Z,103412.22
2023-02-11T23:09:12.322Z,103405.88
2023-02-11T23:11:39.385Z,103413.84
2023-02-11T23:14:08.528Z,103418.88
2023-02-11T23:16:35.536Z,103414.31
2023-02-11T23:19:05.727Z,103420.84
2023-02-11T23:21:34.958Z,103420.53
2023-02-11T23:24:06.040Z,103419.06
2023-02-11T23:26:32.591Z,103430.59
2023-02-11T23:28:59.848Z,103421.81
2023-02-11T23:31:37.435Z,103432.88
2023-02-11T23:34:04.174Z,103431.59
2023-02-11T23:36:31.251Z,103438.41
2023-02-11T23:38:57.861Z,103434.34
2023-02-11T23:41:24.884Z,103446.19
2023-02-11T23:43:53.568Z,103454.00
2023-02-11T23:46:22.044Z,103453.69
2023-02-11T23:48:51.368Z,103447.34
2023-02-11T23:51:18.426Z,103448.31
2023-02-11T23:53:46.226Z,103447.00
2023-02-11T23:56:20.165Z,103444.72
2023-02-11T23:58:51.131Z,103443.75
